Main page
METAR-TAF:

METAR-TAF

Airports :

Tangier Ibn Battouta Airport

Tangier, Morocco

latitude: 35-44N, longitude: 005-54W, elevation: 19 m

Current weather observation

The report was made 29 minutes ago, at 21:30 UTC
Wind 3 kt from the Southeast
Temperature 14°C
Humidity 77%
Pressure 1016 hPa
Visibility 10 km or more
no clouds below 1500 m and no cumulonimbus

METAR: GMTT 212130Z 13003KT CAVOK 14/10 Q1016 NOSIG

Time: 22:59 (21:59 UTC)

Forecast

The report was made 4 hours and 59 minutes ago, at 17:00 UTC
Forecast valid from 21 at 18 UTC to 22 at 24 UTC
Wind 7 kt from the Northwest
Visibility 10 km or more
no clouds below 1500 m and no cumulonimbus
Temporary
from 22 at 06 UTC to 22 at 18 UTC
Visibility: 4000 m
Scattered clouds at a height of 800 ft
Broken clouds at a height of 1200 ft
Few clouds at a height of 1500 ft, Towering cumulus.
rain showers

TAF: GMTT 211700Z 2118/2224 32007KT CAVOK TEMPO 2206/2218 4000 SHRA SCT008 BKN012 FEW015TCU

Weather observations and forecasts of more than 4000 airports (METAR and TAF reports).

The available stations are represented by yellow and red dots on the map.

Hover mouse over dot to see the name of the station.

Then click to see weather observations and forecasts.

To change the map : click on the green buttons with a black cross to zoom in, on the green button with a dash to zoom out, or on the green arrows for adjacent maps.


METAR-TAF: